Time;durP1;ratioP1;P1;durP2;ratioP2;P2;SDS_P1;SDS_P2;PMS_P1;PMS_P2;Temp;Humidity;BMP_temperature;BMP_pressure;BME280_temperature;BME280_humidity;BME280_pressure;Samples;Min_cycle;Max_cycle;Signal;HPM_P1;HPM_P2
2022/04/21 00:01:33;;;;;;;1.70;1.20;;;14.00;99.90;;;;;;4845124;29;20478;-66
2022/04/21 00:04:04;;;;;;;1.47;1.30;;;13.90;99.90;;;;;;4842255;29;20489;-66
2022/04/21 00:06:34;;;;;;;0.93;0.90;;;14.00;99.90;;;;;;4847391;29;20501;-66
2022/04/21 00:09:05;;;;;;;2.63;1.07;;;14.10;99.90;;;;;;4843965;29;20474;-66
2022/04/21 00:11:36;;;;;;;1.30;1.20;;;14.10;99.90;;;;;;4850090;29;20500;-66
2022/04/21 00:14:08;;;;;;;1.20;1.10;;;14.00;99.90;;;;;;4848907;29;21032;-66
2022/04/21 00:16:39;;;;;;;1.87;1.30;;;14.00;99.90;;;;;;4850468;29;20489;-66
2022/04/21 00:19:10;;;;;;;1.10;1.10;;;13.90;99.90;;;;;;4849268;29;20470;-66
2022/04/21 00:24:25;;;;;;;1.50;1.00;;;13.80;99.90;;;;;;4841079;29;20466;-65
2022/04/21 00:26:56;;;;;;;2.00;1.20;;;13.80;99.90;;;;;;4848907;29;20936;-66
2022/04/21 00:29:28;;;;;;;1.03;0.97;;;13.70;99.90;;;;;;4847713;29;20481;-66
2022/04/21 00:31:59;;;;;;;1.60;0.90;;;13.70;99.90;;;;;;4851034;29;20482;-67
2022/04/21 00:34:30;;;;;;;1.63;1.00;;;13.70;99.90;;;;;;4850170;29;20497;-67
2022/04/21 00:37:01;;;;;;;1.13;0.80;;;13.70;99.90;;;;;;4850303;29;20462;-67
2022/04/21 00:39:32;;;;;;;0.97;0.97;;;13.70;99.90;;;;;;4848912;29;20474;-67
2022/04/21 00:42:04;;;;;;;2.40;1.20;;;13.60;99.90;;;;;;4850777;29;20546;-66
2022/04/21 00:44:36;;;;;;;1.20;1.10;;;13.60;99.90;;;;;;4848187;29;20474;-67
2022/04/21 00:47:08;;;;;;;1.50;1.40;;;13.50;99.90;;;;;;4846911;29;20474;-67
2022/04/21 00:49:39;;;;;;;2.93;1.77;;;13.40;99.90;;;;;;4841408;29;20466;-67
2022/04/21 00:52:10;;;;;;;2.00;1.27;;;13.20;99.90;;;;;;4848462;29;20482;-63
2022/04/21 00:54:41;;;;;;;1.33;1.23;;;13.10;99.90;;;;;;4854082;29;20979;-66
2022/04/21 00:57:13;;;;;;;1.87;1.00;;;13.10;99.90;;;;;;4849646;29;20472;-66
2022/04/21 00:59:47;;;;;;;1.27;1.03;;;13.10;99.90;;;;;;4846418;29;20993;-66
2022/04/21 01:05:08;;;;;;;1.13;1.07;;;13.00;99.90;;;;;;4848701;29;20565;-67
2022/04/21 01:07:39;;;;;;;1.73;1.37;;;13.00;99.90;;;;;;4850671;29;20470;-67
2022/04/21 01:10:11;;;;;;;2.13;1.70;;;13.10;99.90;;;;;;4847558;29;20498;-69
2022/04/21 01:12:43;;;;;;;1.40;1.30;;;13.20;99.90;;;;;;4848871;29;20503;-68
2022/04/21 01:15:16;;;;;;;1.40;1.30;;;13.10;99.90;;;;;;4845736;29;20494;-68
2022/04/21 01:17:47;;;;;;;1.77;1.17;;;13.10;99.90;;;;;;4850285;29;20454;-68
2022/04/21 01:20:20;;;;;;;4.40;1.40;;;13.10;99.90;;;;;;4845616;29;20547;-69
2022/04/21 01:22:53;;;;;;;1.67;1.10;;;13.00;99.90;;;;;;4845125;29;20564;-67
2022/04/21 01:25:24;;;;;;;1.20;1.10;;;13.00;99.90;;;;;;4847110;29;20493;-67
2022/04/21 01:27:58;;;;;;;1.03;0.93;;;13.10;99.90;;;;;;4847161;29;20498;-69
2022/04/21 01:30:29;;;;;;;0.93;0.93;;;13.10;99.90;;;;;;4847811;29;20477;-68
2022/04/21 01:33:00;;;;;;;1.20;1.10;;;13.10;99.90;;;;;;4848919;29;20875;-68
2022/04/21 01:35:33;;;;;;;1.87;1.00;;;13.10;99.90;;;;;;4845735;29;20498;-69
2022/04/21 01:43:39;;;;;;;0.87;0.83;;;12.90;99.90;;;;;;4847403;29;20470;-67
2022/04/21 01:46:11;;;;;;;1.40;1.30;;;12.80;99.90;;;;;;4846136;29;20503;-67
2022/04/21 01:48:42;;;;;;;2.83;0.90;;;12.80;99.90;;;;;;4834037;29;20571;-68
2022/04/21 01:51:14;;;;;;;1.47;1.00;;;12.80;99.90;;;;;;4848200;29;20478;-67
2022/04/21 01:53:45;;;;;;;1.40;1.30;;;12.80;99.90;;;;;;4847632;29;20482;-66
2022/04/21 01:56:16;;;;;;;1.37;1.10;;;12.80;99.90;;;;;;4843526;29;20501;-67
2022/04/21 01:58:47;;;;;;;1.00;1.00;;;12.80;99.90;;;;;;4842580;29;20467;-69
2022/04/21 02:01:18;;;;;;;1.10;1.03;;;12.80;99.90;;;;;;4843093;29;20458;-64
2022/04/21 02:03:49;;;;;;;1.20;1.10;;;12.80;99.90;;;;;;4838170;29;20461;-64
2022/04/21 02:06:21;;;;;;;2.20;1.03;;;12.70;99.90;;;;;;4849580;29;20470;-63
2022/04/21 02:08:53;;;;;;;1.50;1.33;;;12.60;99.90;;;;;;4849549;29;20475;-64
2022/04/21 02:11:25;;;;;;;2.53;0.90;;;12.60;99.90;;;;;;4845571;29;20514;-64
2022/04/21 02:13:57;;;;;;;1.13;1.10;;;12.50;99.90;;;;;;4844346;29;20469;-64
2022/04/21 02:16:27;;;;;;;1.50;1.40;;;12.60;99.90;;;;;;4853289;29;20512;-65
2022/04/21 02:18:58;;;;;;;2.10;1.20;;;12.50;99.90;;;;;;4850072;29;20529;-64
2022/04/21 02:21:31;;;;;;;2.00;1.10;;;12.60;99.90;;;;;;4846612;29;20465;-64
2022/04/21 02:24:01;;;;;;;2.43;1.70;;;12.50;99.90;;;;;;4852920;29;20554;-64
2022/04/21 02:26:32;;;;;;;4.30;1.53;;;12.50;99.90;;;;;;4851868;29;20478;-66
2022/04/21 02:29:04;;;;;;;1.30;1.20;;;12.50;99.90;;;;;;4844597;29;20478;-64
2022/04/21 02:31:34;;;;;;;1.80;1.63;;;12.40;99.90;;;;;;4840633;29;20475;-62
2022/04/21 02:34:05;;;;;;;1.90;1.10;;;12.30;99.90;;;;;;4851731;29;20955;-64
2022/04/21 02:36:38;;;;;;;1.53;1.40;;;12.20;99.90;;;;;;4840129;29;20491;-63
2022/04/21 02:39:09;;;;;;;1.80;1.13;;;12.20;99.90;;;;;;4846400;29;20481;-63
2022/04/21 02:41:40;;;;;;;1.07;1.00;;;12.20;99.90;;;;;;4845982;29;20458;-63
2022/04/21 02:44:11;;;;;;;3.40;1.30;;;12.10;99.90;;;;;;4840422;29;20591;-64
2022/04/21 02:46:41;;;;;;;1.10;1.00;;;12.10;99.90;;;;;;4840487;29;20475;-63
2022/04/21 02:49:13;;;;;;;1.70;1.00;;;12.00;99.90;;;;;;4838130;29;20574;-64
2022/04/21 02:51:46;;;;;;;1.80;1.07;;;11.90;99.90;;;;;;4846018;29;20945;-63
2022/04/21 02:57:23;;;;;;;1.10;1.10;;;11.80;99.90;;;;;;4842674;29;20502;-63
2022/04/21 02:59:57;;;;;;;4.63;1.67;;;11.80;99.90;;;;;;4848671;29;20510;-63
2022/04/21 03:02:28;;;;;;;1.50;1.40;;;11.70;99.90;;;;;;4850305;29;20474;-63
2022/04/21 03:04:58;;;;;;;1.57;1.37;;;11.60;99.90;;;;;;4844940;29;20538;-62
2022/04/21 03:07:31;;;;;;;1.50;1.40;;;11.60;99.90;;;;;;4845059;29;20466;-61
2022/04/21 03:10:02;;;;;;;1.50;1.40;;;11.60;99.90;;;;;;4851350;29;20498;-63
2022/04/21 03:12:33;;;;;;;2.97;1.73;;;11.50;99.90;;;;;;4850197;29;20478;-63
2022/04/21 03:15:03;;;;;;;2.40;1.40;;;11.40;99.90;;;;;;4836549;29;20465;-61
2022/04/21 03:17:34;;;;;;;2.80;1.40;;;11.30;99.90;;;;;;4839758;29;20977;-61
2022/04/21 03:20:06;;;;;;;1.30;1.20;;;11.20;99.90;;;;;;4840743;29;20460;-61
2022/04/21 03:25:30;;;;;;;1.53;1.37;;;11.10;99.90;;;;;;4842390;29;20481;-61
2022/04/21 03:28:03;;;;;;;1.73;1.27;;;11.00;99.90;;;;;;4840813;29;20578;-62
2022/04/21 03:30:34;;;;;;;3.53;1.73;;;11.00;99.90;;;;;;4838455;29;20483;-61
2022/04/21 03:33:05;;;;;;;1.17;1.17;;;10.90;99.90;;;;;;4849952;29;20538;-62
2022/04/21 03:35:35;;;;;;;2.57;1.40;;;10.80;99.90;;;;;;4845133;29;20507;-61
2022/04/21 03:38:08;;;;;;;3.13;1.90;;;10.80;99.90;;;;;;4841815;29;20482;-61
2022/04/21 03:40:39;;;;;;;3.30;1.80;;;10.70;99.90;;;;;;4852561;29;20454;-61
2022/04/21 03:43:10;;;;;;;2.43;1.40;;;10.80;99.90;;;;;;4850178;29;20474;-62
2022/04/21 03:45:41;;;;;;;1.63;1.53;;;10.70;99.90;;;;;;4838379;29;20473;-61
2022/04/21 03:48:13;;;;;;;2.23;1.70;;;10.60;99.90;;;;;;4846362;29;20478;-61
2022/04/21 03:50:44;;;;;;;2.20;1.80;;;10.50;99.90;;;;;;4852419;29;20573;-61
2022/04/21 03:53:16;;;;;;;2.27;1.90;;;10.50;99.90;;;;;;4850412;29;20494;-62
2022/04/21 03:55:47;;;;;;;2.07;1.93;;;10.30;99.90;;;;;;4844663;29;21102;-61
2022/04/21 03:58:18;;;;;;;2.60;1.77;;;10.30;99.90;;;;;;4850854;29;20485;-61
2022/04/21 04:00:49;;;;;;;3.10;2.63;;;10.30;99.90;;;;;;4850171;29;20481;-61
2022/04/21 04:03:20;;;;;;;1.87;1.73;;;10.20;99.90;;;;;;4834065;29;20468;-61
2022/04/21 04:05:50;;;;;;;2.50;2.10;;;10.10;99.90;;;;;;4842288;29;20471;-61
2022/04/21 04:11:10;;;;;;;2.23;2.03;;;10.00;99.90;;;;;;4841735;29;20553;-61
2022/04/21 04:13:41;;;;;;;5.00;4.13;;;9.90;99.90;;;;;;4850149;29;20557;-61
2022/04/21 04:16:13;;;;;;;5.40;4.90;;;9.90;99.90;;;;;;4843003;29;20511;-61
2022/04/21 04:18:44;;;;;;;12.40;8.30;;;9.80;99.90;;;;;;4845585;29;20530;-62
2022/04/21 04:21:14;;;;;;;8.33;5.50;;;9.80;99.90;;;;;;4841140;29;20465;-62
2022/04/21 04:23:47;;;;;;;4.73;3.30;;;9.80;99.90;;;;;;4846486;29;20469;-62
2022/04/21 04:26:17;;;;;;;2.93;2.63;;;9.80;99.90;;;;;;4842510;29;20470;-61
2022/04/21 04:28:49;;;;;;;3.10;2.43;;;9.70;99.90;;;;;;4845794;29;20473;-63
2022/04/21 04:31:20;;;;;;;3.03;2.43;;;9.70;99.90;;;;;;4849162;29;20814;-62
2022/04/21 04:33:51;;;;;;;3.33;3.03;;;9.70;99.90;;;;;;4834013;29;20475;-63
2022/04/21 04:36:22;;;;;;;2.70;2.50;;;9.80;99.90;;;;;;4834208;29;20506;-63
2022/04/21 04:38:55;;;;;;;5.27;3.83;;;9.80;99.90;;;;;;4843547;29;20523;-62
2022/04/21 04:44:13;;;;;;;3.93;2.37;;;9.80;99.90;;;;;;4843582;29;20463;-62
2022/04/21 04:46:43;;;;;;;3.37;2.50;;;9.80;99.90;;;;;;4848109;29;20484;-62
2022/04/21 04:49:14;;;;;;;5.93;2.97;;;9.70;99.90;;;;;;4849657;29;20477;-62
2022/04/21 04:51:45;;;;;;;2.60;2.40;;;9.70;99.90;;;;;;4847791;29;20481;-62
2022/04/21 04:54:17;;;;;;;2.50;2.30;;;9.70;99.90;;;;;;4847861;29;20463;-62
2022/04/21 04:56:49;;;;;;;2.90;2.60;;;9.70;99.90;;;;;;4840448;29;20249;-62
2022/04/21 04:59:20;;;;;;;2.47;2.27;;;9.80;99.90;;;;;;4849043;29;20470;-62
2022/04/21 05:01:50;;;;;;;3.60;2.47;;;9.70;99.90;;;;;;4844191;29;20475;-62
2022/04/21 05:04:22;;;;;;;2.50;2.30;;;9.80;99.90;;;;;;4849459;29;20466;-63
2022/04/21 05:06:54;;;;;;;2.47;2.17;;;9.70;99.90;;;;;;4848147;29;20556;-62
2022/04/21 05:09:27;;;;;;;2.30;2.20;;;9.70;99.90;;;;;;4850258;29;20493;-62
2022/04/21 05:11:59;;;;;;;2.15;2.05;;;9.70;99.90;;;;;;4842466;29;20485;-63
2022/04/21 05:14:30;;;;;;;3.60;1.80;;;9.70;99.90;;;;;;4844069;29;20209;-62
2022/04/21 05:17:01;;;;;;;2.07;1.70;;;9.70;99.90;;;;;;4848534;29;20502;-63
2022/04/21 05:19:32;;;;;;;2.13;1.93;;;9.70;99.90;;;;;;4849711;29;20618;-62
2022/04/21 05:22:06;;;;;;;1.63;1.50;;;9.70;99.90;;;;;;4845738;29;20830;-63
2022/04/21 05:24:40;;;;;;;2.07;1.63;;;9.60;99.90;;;;;;4844118;29;20463;-63
2022/04/21 05:27:12;;;;;;;3.20;1.60;;;9.60;99.90;;;;;;4838850;29;20501;-62
2022/04/21 05:32:37;;;;;;;1.50;1.40;;;9.60;99.90;;;;;;4836673;29;20494;-63
2022/04/21 05:35:11;;;;;;;1.73;1.55;;;9.60;99.90;;;;;;4848131;29;20511;-62
2022/04/21 05:37:42;;;;;;;2.17;1.70;;;9.60;99.90;;;;;;4850220;29;20240;-62
2022/04/21 05:40:16;;;;;;;1.90;1.67;;;9.60;99.90;;;;;;4835649;29;20478;-63
2022/04/21 05:42:50;;;;;;;4.37;1.90;;;9.60;99.90;;;;;;4844950;29;20554;-64
2022/04/21 05:45:21;;;;;;;1.90;1.80;;;9.50;99.90;;;;;;4843796;29;20574;-62
2022/04/21 05:47:53;;;;;;;1.50;1.40;;;9.50;99.90;;;;;;4838380;29;20479;-63
2022/04/21 05:50:25;;;;;;;2.60;1.42;;;9.50;99.90;;;;;;4837881;29;20470;-62
2022/04/21 05:53:00;;;;;;;1.43;1.33;;;9.50;99.90;;;;;;4840654;29;20220;-62
2022/04/21 05:55:34;;;;;;;1.45;1.33;;;9.50;99.90;;;;;;4843966;29;20481;-62
2022/04/21 05:58:04;;;;;;;1.92;1.58;;;9.50;99.90;;;;;;4844355;29;20245;-62
2022/04/21 06:00:35;;;;;;;1.83;1.73;;;9.50;99.90;;;;;;4846186;29;20201;-62
2022/04/21 06:03:06;;;;;;;2.47;1.67;;;9.60;99.90;;;;;;4847978;29;20478;-62
2022/04/21 06:05:37;;;;;;;1.70;1.60;;;9.50;99.90;;;;;;4839512;29;20490;-63
2022/04/21 06:08:08;;;;;;;1.50;1.40;;;9.50;99.90;;;;;;4846281;29;20482;-62
2022/04/21 06:10:40;;;;;;;3.30;1.83;;;9.50;99.90;;;;;;4837860;29;20504;-62
2022/04/21 06:13:13;;;;;;;1.70;1.30;;;9.40;99.90;;;;;;4839633;29;20467;-63
2022/04/21 06:15:45;;;;;;;1.40;1.20;;;9.30;99.90;;;;;;4842695;29;20466;-63
2022/04/21 06:18:15;;;;;;;1.75;1.48;;;9.30;99.90;;;;;;4848287;29;20518;-62
2022/04/21 06:20:46;;;;;;;1.48;1.38;;;9.40;99.90;;;;;;4839876;29;20243;-62
2022/04/21 06:23:17;;;;;;;1.77;1.20;;;9.40;99.90;;;;;;4847491;29;20218;-63
2022/04/21 06:25:53;;;;;;;0.93;0.93;;;9.40;99.90;;;;;;4849891;29;20472;-62
2022/04/21 06:28:24;;;;;;;1.48;1.38;;;9.30;99.90;;;;;;4846066;29;20466;-62
2022/04/21 06:30:55;;;;;;;1.70;1.57;;;9.20;99.90;;;;;;4844911;29;20214;-62
2022/04/21 06:33:27;;;;;;;2.00;1.03;;;9.20;99.90;;;;;;4844484;29;20462;-62
2022/04/21 06:35:58;;;;;;;1.30;1.13;;;9.20;99.90;;;;;;4849494;29;20482;-62
2022/04/21 06:38:29;;;;;;;0.93;0.90;;;9.10;99.90;;;;;;4835844;29;20237;-62
2022/04/21 06:41:02;;;;;;;1.58;1.30;;;9.20;99.90;;;;;;4842610;29;20484;-63
2022/04/21 06:49:16;;;;;;;0.80;0.80;;;9.20;99.90;;;;;;4814014;29;20298;-62
2022/04/21 06:51:46;;;;;;;1.27;1.17;;;9.10;99.90;;;;;;4814258;29;20211;-62
2022/04/21 06:54:18;;;;;;;1.90;1.00;;;9.10;99.90;;;;;;4814519;29;20334;-62
2022/04/21 06:56:51;;;;;;;1.40;1.00;;;9.00;99.90;;;;;;4813283;29;20379;-63
2022/04/21 06:59:21;;;;;;;1.35;1.25;;;9.10;99.90;;;;;;4813579;29;20267;-63
2022/04/21 07:01:52;;;;;;;0.93;0.90;;;9.10;99.90;;;;;;4814669;29;20336;-62
2022/04/21 07:04:23;;;;;;;1.33;0.70;;;9.10;99.90;;;;;;4812485;29;20210;-62
2022/04/21 07:06:54;;;;;;;1.73;0.98;;;9.10;99.90;;;;;;4813965;29;20221;-62
2022/04/21 07:09:25;;;;;;;1.15;1.05;;;9.10;99.90;;;;;;4813901;29;20206;-62
2022/04/21 07:11:57;;;;;;;3.30;1.20;;;9.00;99.90;;;;;;4813647;29;20242;-62
2022/04/21 07:14:28;;;;;;;1.25;1.25;;;9.00;99.90;;;;;;4813802;29;20452;-63
2022/04/21 07:16:59;;;;;;;3.65;1.60;;;8.90;99.90;;;;;;4812493;29;20603;-62
2022/04/21 07:19:29;;;;;;;2.25;1.75;;;8.90;99.90;;;;;;4813506;29;20345;-62
2022/04/21 07:22:01;;;;;;;2.60;1.10;;;8.90;99.90;;;;;;4816910;29;20217;-62
2022/04/21 07:24:32;;;;;;;3.17;1.20;;;8.90;99.90;;;;;;4841349;29;20376;-61
2022/04/21 07:27:05;;;;;;;2.40;1.23;;;8.90;99.90;;;;;;4852288;29;20234;-62
2022/04/21 07:29:37;;;;;;;1.60;1.15;;;8.90;99.90;;;;;;4849503;29;20205;-62
2022/04/21 07:32:09;;;;;;;3.33;1.80;;;8.90;99.90;;;;;;4837677;29;20217;-62
2022/04/21 07:34:41;;;;;;;1.70;1.40;;;8.80;99.90;;;;;;4850526;29;20228;-64
2022/04/21 07:37:13;;;;;;;1.85;1.40;;;8.80;99.90;;;;;;4841276;29;20226;-64
2022/04/21 07:39:44;;;;;;;2.05;1.52;;;8.80;99.90;;;;;;4849600;29;20209;-63
2022/04/21 07:42:17;;;;;;;2.45;1.83;;;8.80;99.90;;;;;;4844186;29;20248;-64
2022/04/21 07:44:47;;;;;;;2.00;1.80;;;8.70;99.90;;;;;;4844659;29;20304;-64
2022/04/21 07:47:18;;;;;;;1.83;1.67;;;8.60;99.90;;;;;;4852055;29;20304;-63
2022/04/21 07:49:49;;;;;;;2.58;1.73;;;8.70;99.90;;;;;;4846060;29;20233;-63
2022/04/21 07:55:17;;;;;;;5.10;2.38;;;8.70;99.90;;;;;;4851390;29;20213;-63
2022/04/21 07:57:50;;;;;;;4.85;2.03;;;8.60;99.90;;;;;;4848877;29;20732;-63
2022/04/21 08:00:21;;;;;;;2.08;1.90;;;8.70;99.90;;;;;;4839388;29;20218;-64
2022/04/21 08:02:52;;;;;;;3.78;2.05;;;8.70;99.90;;;;;;4849712;29;20676;-63
2022/04/21 08:05:23;;;;;;;2.17;1.98;;;8.70;99.90;;;;;;4848468;29;20265;-63
2022/04/21 08:07:54;;;;;;;2.05;1.83;;;8.60;99.90;;;;;;4848273;29;20228;-63
2022/04/21 08:10:27;;;;;;;2.55;1.65;;;8.60;99.90;;;;;;4844781;29;20237;-64
2022/04/21 08:13:00;;;;;;;1.67;1.58;;;8.60;99.90;;;;;;4839565;29;20355;-63
2022/04/21 08:15:32;;;;;;;1.88;1.70;;;8.50;99.90;;;;;;4848730;29;20221;-63
2022/04/21 08:18:06;;;;;;;3.33;1.80;;;8.50;99.90;;;;;;4850673;29;20233;-63
2022/04/21 08:20:38;;;;;;;2.05;1.90;;;8.50;99.90;;;;;;4851458;29;20231;-63
2022/04/21 08:23:09;;;;;;;1.83;1.73;;;8.50;99.90;;;;;;4847584;29;20225;-63
2022/04/21 08:34:48;;;;;;;1.67;1.58;;;8.50;99.90;;;;;;4810258;29;20298;-63
2022/04/21 08:37:22;;;;;;;2.75;2.55;;;8.40;99.90;;;;;;4810825;29;20257;-63
2022/04/21 08:39:53;;;;;;;2.35;2.15;;;8.50;99.90;;;;;;4811010;29;20238;-64
2022/04/21 08:42:26;;;;;;;1.90;1.80;;;8.50;99.90;;;;;;4800594;29;20211;-63
2022/04/21 08:45:00;;;;;;;3.25;2.35;;;8.40;99.90;;;;;;4810325;29;20213;-63
2022/04/21 08:47:31;;;;;;;2.97;2.10;;;8.40;99.90;;;;;;4798674;29;20728;-63
2022/04/21 08:50:07;;;;;;;2.47;1.98;;;8.40;99.90;;;;;;4811804;29;20229;-63
2022/04/21 08:52:38;;;;;;;2.00;1.80;;;8.50;99.90;;;;;;4811176;29;20214;-63
2022/04/21 08:55:10;;;;;;;2.10;2.00;;;8.50;99.90;;;;;;4804495;29;20325;-63
2022/04/21 08:57:41;;;;;;;2.00;1.90;;;8.50;99.90;;;;;;4809018;29;20227;-63
2022/04/21 09:00:14;;;;;;;2.15;1.85;;;8.50;99.90;;;;;;4811479;29;20249;-63
2022/04/21 09:02:48;;;;;;;3.22;2.28;;;8.50;99.90;;;;;;4822607;29;20235;-63
2022/04/21 09:05:20;;;;;;;4.10;2.00;;;8.50;99.90;;;;;;4850411;29;20658;-63
2022/04/21 09:07:52;;;;;;;3.38;2.53;;;8.50;99.90;;;;;;4849521;29;20213;-63
2022/04/21 09:10:43;;;;;;;2.22;2.03;;;8.50;99.90;;;;;;4837724;29;20332;-63
2022/04/21 09:13:14;;;;;;;3.10;2.30;;;8.50;99.90;;;;;;4844549;29;20264;-64
2022/04/21 09:15:47;;;;;;;2.28;2.08;;;8.50;99.90;;;;;;4844167;29;20218;-63
2022/04/21 09:18:18;;;;;;;3.70;2.40;;;8.60;99.90;;;;;;4845215;29;20248;-63
2022/04/21 09:20:55;;;;;;;2.88;1.95;;;8.60;99.90;;;;;;4848297;29;20233;-63
2022/04/21 09:23:35;;;;;;;3.95;2.20;;;8.60;99.90;;;;;;4838244;29;20574;-63
2022/04/21 09:26:10;;;;;;;3.17;2.05;;;8.60;99.90;;;;;;4847455;29;20232;-63
2022/04/21 09:28:55;;;;;;;2.65;1.80;;;8.60;99.90;;;;;;4842341;29;20224;-63
2022/04/21 09:31:29;;;;;;;3.17;2.30;;;8.60;99.90;;;;;;4844217;29;20233;-64
2022/04/21 09:34:02;;;;;;;2.05;1.83;;;8.60;99.90;;;;;;4844627;29;20213;-63
2022/04/21 09:36:34;;;;;;;2.17;2.00;;;8.70;99.90;;;;;;4849782;29;20209;-63
2022/04/21 09:39:05;;;;;;;2.90;2.10;;;8.70;99.90;;;;;;4840038;29;20241;-64
2022/04/21 09:41:35;;;;;;;2.13;1.92;;;8.60;99.90;;;;;;4843095;29;20219;-64
2022/04/21 09:47:10;;;;;;;2.15;1.95;;;8.60;99.90;;;;;;4847051;29;20217;-64
2022/04/21 09:49:41;;;;;;;3.25;2.15;;;8.60;99.90;;;;;;4846641;29;20212;-64
2022/04/21 09:52:13;;;;;;;2.97;1.80;;;8.60;99.90;;;;;;4850722;29;20217;-63
2022/04/21 09:54:45;;;;;;;1.60;1.50;;;8.60;99.90;;;;;;4849790;29;20669;-63
2022/04/21 09:57:29;;;;;;;1.48;1.38;;;8.50;99.90;;;;;;4836784;29;20285;-63
2022/04/21 10:00:00;;;;;;;1.70;1.60;;;8.50;99.90;;;;;;4840687;29;20264;-63
2022/04/21 10:02:33;;;;;;;1.58;1.40;;;8.50;99.90;;;;;;4850345;29;20562;-63
2022/04/21 10:05:05;;;;;;;2.42;1.30;;;8.40;99.90;;;;;;4844608;29;20213;-63
2022/04/21 10:07:37;;;;;;;1.33;1.20;;;8.40;99.90;;;;;;4839664;29;20201;-63
2022/04/21 10:10:10;;;;;;;1.58;1.48;;;8.30;99.90;;;;;;4849386;29;20245;-63
2022/04/21 10:12:42;;;;;;;1.70;1.58;;;8.30;99.90;;;;;;4849933;29;20224;-63
2022/04/21 10:15:13;;;;;;;1.48;1.38;;;8.30;99.90;;;;;;4839183;29;20224;-63
2022/04/21 10:17:46;;;;;;;1.80;1.70;;;8.30;99.90;;;;;;4853288;29;20671;-63
2022/04/21 10:20:17;;;;;;;1.65;1.40;;;8.20;99.90;;;;;;4850944;29;20217;-62
2022/04/21 10:22:49;;;;;;;1.33;1.23;;;8.20;99.90;;;;;;4841350;29;20214;-63
2022/04/21 10:25:22;;;;;;;1.50;1.30;;;8.30;99.90;;;;;;4848369;29;20209;-62
2022/04/21 10:27:53;;;;;;;1.70;1.23;;;8.30;99.90;;;;;;4847963;29;20209;-63
2022/04/21 10:30:29;;;;;;;1.70;1.50;;;8.30;99.90;;;;;;4846055;29;20867;-63
2022/04/21 10:33:02;;;;;;;1.00;1.00;;;8.30;99.90;;;;;;4850415;29;20252;-63
2022/04/21 10:35:49;;;;;;;1.27;1.10;;;8.30;99.90;;;;;;4847238;29;20209;-63
2022/04/21 10:38:25;;;;;;;1.20;1.10;;;8.30;99.90;;;;;;4840698;29;20234;-62
2022/04/21 10:41:02;;;;;;;1.25;1.15;;;8.30;99.90;;;;;;4843344;29;20297;-63
2022/04/21 10:44:04;;;;;;;2.05;0.98;;;8.30;99.90;;;;;;4847523;29;20364;-64
2022/04/21 10:46:35;;;;;;;1.67;1.30;;;8.30;99.90;;;;;;4845084;29;20308;-63
2022/04/21 10:49:58;;;;;;;1.73;1.00;;;8.30;99.90;;;;;;4837663;29;20216;-63
2022/04/21 10:58:52;;;;;;;1.75;0.90;;;8.40;99.90;;;;;;4837027;29;20222;-63
2022/04/21 11:01:35;;;;;;;0.85;0.82;;;8.50;99.90;;;;;;4850669;29;20219;-63
2022/04/21 11:04:21;;;;;;;0.80;0.80;;;8.50;99.90;;;;;;4853049;29;20272;-63
2022/04/21 11:07:14;;;;;;;0.82;0.82;;;8.50;99.90;;;;;;4841139;29;20221;-63
2022/04/21 11:09:50;;;;;;;4.50;1.13;;;8.50;99.90;;;;;;4838476;29;20213;-64
2022/04/21 11:12:49;;;;;;;1.85;1.02;;;8.60;99.90;;;;;;4850976;29;20214;-63
2022/04/21 11:15:36;;;;;;;0.82;0.82;;;8.50;99.90;;;;;;4851084;29;20225;-63
2022/04/21 11:18:11;;;;;;;0.82;0.82;;;8.60;99.90;;;;;;4851944;29;20205;-63
2022/04/21 11:20:43;;;;;;;1.15;0.73;;;8.60;99.90;;;;;;4850651;29;20233;-63
2022/04/21 11:23:25;;;;;;;1.45;0.73;;;8.60;99.90;;;;;;4849944;29;20383;-63
2022/04/21 11:26:04;;;;;;;1.48;0.73;;;8.60;99.90;;;;;;4845351;29;20213;-63
2022/04/21 11:28:35;;;;;;;1.30;0.40;;;8.60;99.90;;;;;;4846686;29;20209;-63
2022/04/21 11:31:07;;;;;;;1.23;0.60;;;8.60;99.90;;;;;;4845172;29;20228;-63
2022/04/21 11:33:41;;;;;;;1.05;0.50;;;8.70;99.90;;;;;;4839344;29;20241;-63
2022/04/21 11:36:13;;;;;;;1.38;0.73;;;8.70;99.90;;;;;;4836649;29;20674;-64
2022/04/21 11:38:47;;;;;;;1.10;0.70;;;8.70;99.90;;;;;;4837902;29;20202;-63
2022/04/21 11:41:18;;;;;;;2.25;0.60;;;8.70;99.90;;;;;;4847537;29;20233;-63
2022/04/21 11:43:50;;;;;;;0.60;0.60;;;8.80;99.90;;;;;;4851095;29;20223;-63
2022/04/21 11:46:22;;;;;;;0.60;0.60;;;8.70;99.90;;;;;;4851280;29;20233;-63
2022/04/21 11:49:00;;;;;;;1.30;0.80;;;8.60;99.90;;;;;;4836007;29;20225;-63
2022/04/21 11:51:33;;;;;;;2.08;0.85;;;8.60;99.90;;;;;;4840276;29;20283;-62
2022/04/21 11:54:11;;;;;;;1.85;0.75;;;8.60;99.90;;;;;;4841521;29;20296;-63
2022/04/21 11:56:42;;;;;;;1.00;0.65;;;8.60;99.90;;;;;;4843359;29;20360;-63
2022/04/21 11:59:13;;;;;;;1.02;0.50;;;8.70;99.90;;;;;;4845376;29;20205;-63
2022/04/21 12:07:19;;;;;;;0.60;0.60;;;8.70;99.90;;;;;;4847275;29;20210;-63
2022/04/21 12:09:52;;;;;;;0.80;0.70;;;8.70;99.90;;;;;;4849013;29;20630;-63
2022/04/21 12:12:23;;;;;;;2.30;2.10;;;8.70;99.90;;;;;;4845835;29;20216;-63
2022/04/21 12:14:54;;;;;;;1.05;1.00;;;8.60;99.90;;;;;;4837099;29;20632;-63
2022/04/21 12:17:25;;;;;;;1.20;0.70;;;8.60;99.90;;;;;;4848680;29;20314;-63
2022/04/21 12:20:03;;;;;;;1.02;0.80;;;8.70;99.90;;;;;;4837528;29;20260;-63
2022/04/21 12:22:34;;;;;;;2.05;0.90;;;8.60;99.90;;;;;;4845437;29;20209;-63
2022/04/21 12:25:13;;;;;;;1.60;0.90;;;8.70;99.90;;;;;;4846585;29;20221;-63
2022/04/21 12:27:44;;;;;;;1.02;0.93;;;8.70;99.90;;;;;;4844329;29;20228;-63
2022/04/21 12:30:17;;;;;;;1.65;0.60;;;8.70;99.90;;;;;;4848573;29;20237;-63
2022/04/21 12:32:50;;;;;;;0.80;0.77;;;8.80;99.90;;;;;;4845902;29;20665;-62
2022/04/21 12:35:45;;;;;;;2.05;1.30;;;8.80;99.90;;;;;;4843253;29;20205;-62
2022/04/21 12:41:06;;;;;;;0.75;0.70;;;8.70;99.90;;;;;;4848100;29;20892;-62
2022/04/21 12:43:37;;;;;;;2.95;0.93;;;8.70;99.90;;;;;;4836710;29;20217;-63
2022/04/21 12:46:08;;;;;;;1.30;1.20;;;8.80;99.90;;;;;;4851434;29;20198;-63
2022/04/21 12:48:50;;;;;;;0.90;0.85;;;8.80;99.90;;;;;;4849928;29;20714;-62
2022/04/21 12:51:22;;;;;;;1.10;1.10;;;8.80;99.90;;;;;;4845997;29;20217;-62
2022/04/21 12:53:59;;;;;;;1.25;1.15;;;8.80;99.90;;;;;;4832421;29;20210;-62
2022/04/21 12:56:39;;;;;;;1.23;1.13;;;8.70;99.90;;;;;;4846237;29;20280;-63
2022/04/21 12:59:10;;;;;;;3.53;1.17;;;8.70;99.90;;;;;;4844913;29;20232;-63
2022/04/21 13:01:41;;;;;;;1.25;0.70;;;8.60;99.90;;;;;;4844768;29;20612;-63
2022/04/21 13:04:12;;;;;;;1.40;1.30;;;8.60;99.90;;;;;;4845406;29;20220;-62
2022/04/21 13:06:43;;;;;;;2.65;1.10;;;8.60;99.90;;;;;;4849591;29;20213;-62
2022/04/21 13:09:14;;;;;;;1.58;1.23;;;8.50;99.90;;;;;;4840872;29;20210;-63
2022/04/21 13:11:46;;;;;;;1.05;0.80;;;8.60;99.90;;;;;;4848951;29;20621;-62
2022/04/21 13:14:20;;;;;;;1.00;1.00;;;8.60;99.90;;;;;;4847857;29;20227;-63
2022/04/21 13:16:51;;;;;;;1.50;1.27;;;8.60;99.90;;;;;;4848334;29;20213;-64
2022/04/21 13:19:21;;;;;;;1.55;1.30;;;8.60;99.90;;;;;;4850960;29;20220;-62
2022/04/21 13:22:12;;;;;;;2.55;1.45;;;8.60;99.90;;;;;;4850566;29;20262;-62
2022/04/21 13:24:43;;;;;;;2.05;1.50;;;8.60;99.90;;;;;;4849189;29;20224;-63
2022/04/21 13:27:16;;;;;;;1.58;1.30;;;8.60;99.90;;;;;;4841259;29;20217;-63
2022/04/21 13:29:47;;;;;;;1.67;1.27;;;8.50;99.90;;;;;;4849092;29;20225;-64
2022/04/21 13:35:05;;;;;;;1.50;1.15;;;8.50;99.90;;;;;;4832372;29;20213;-63
2022/04/21 13:37:38;;;;;;;1.60;1.50;;;8.50;99.90;;;;;;4833357;29;20589;-63
2022/04/21 13:40:10;;;;;;;1.50;1.15;;;8.50;99.90;;;;;;4846354;29;20260;-63
2022/04/21 13:42:42;;;;;;;1.73;1.48;;;8.50;99.90;;;;;;4840750;29;20581;-63
2022/04/21 13:45:15;;;;;;;1.58;1.48;;;8.50;99.90;;;;;;4850271;29;20217;-63
2022/04/21 13:48:04;;;;;;;2.88;1.60;;;8.50;99.90;;;;;;4846380;29;20316;-63
2022/04/21 13:50:35;;;;;;;2.13;1.92;;;8.50;99.90;;;;;;4854862;29;20252;-63
2022/04/21 13:53:06;;;;;;;1.85;1.75;;;8.60;99.90;;;;;;4855143;29;20219;-63
2022/04/21 13:55:37;;;;;;;2.80;1.67;;;8.70;99.90;;;;;;4849930;29;20226;-63
2022/04/21 13:58:10;;;;;;;3.10;2.13;;;8.80;99.90;;;;;;4838019;29;20206;-63
2022/04/21 14:00:44;;;;;;;1.75;1.65;;;8.80;99.90;;;;;;4854605;29;20247;-63
2022/04/21 14:03:15;;;;;;;2.30;2.00;;;8.80;99.90;;;;;;4854273;29;20220;-63
2022/04/21 14:05:45;;;;;;;1.60;1.42;;;8.80;99.90;;;;;;4843391;29;20285;-63
2022/04/21 14:08:17;;;;;;;1.90;1.25;;;8.80;99.90;;;;;;4853692;29;20286;-63
2022/04/21 14:10:47;;;;;;;2.13;1.77;;;8.80;99.90;;;;;;4854489;29;20249;-64
2022/04/21 14:13:20;;;;;;;2.97;1.30;;;8.90;99.90;;;;;;4854098;29;20215;-63
2022/04/21 14:15:52;;;;;;;2.88;1.50;;;8.80;99.90;;;;;;4848256;29;20576;-63
2022/04/21 14:18:43;;;;;;;2.88;1.70;;;8.80;99.90;;;;;;4848870;29;20205;-63
2022/04/21 14:21:14;;;;;;;2.45;2.25;;;8.90;99.90;;;;;;4849658;29;20237;-63
2022/04/21 14:23:45;;;;;;;2.75;1.83;;;8.90;99.90;;;;;;4835874;29;20528;-63
2022/04/21 14:26:16;;;;;;;1.90;1.58;;;8.90;99.90;;;;;;4838817;29;20191;-63